Time;durP1;ratioP1;P1;durP2;ratioP2;P2;SDS_P1;SDS_P2;PMS_P1;PMS_P2;Temp;Humidity;BMP_temperature;BMP_pressure;BME280_temperature;BME280_humidity;BME280_pressure;Samples;Min_cycle;Max_cycle;Signal;HPM_P1;HPM_P2
2022/01/07 00:01:54;;;;;;;20.77;19.77;;;8.10;73.70;;;;;;5069123;28;20504;-79
2022/01/07 00:04:20;;;;;;;20.70;19.77;;;8.20;73.70;;;;;;5069640;28;20033;-79
2022/01/07 00:06:46;;;;;;;20.90;19.90;;;8.20;73.70;;;;;;5070693;28;20495;-80
2022/01/07 00:09:12;;;;;;;20.65;19.75;;;8.20;73.80;;;;;;5070725;28;20038;-79
2022/01/07 00:11:38;;;;;;;21.10;19.90;;;8.20;73.80;;;;;;5069871;28;20409;-79
2022/01/07 00:14:04;;;;;;;21.20;19.97;;;8.20;73.80;;;;;;5069499;28;20024;-79
2022/01/07 00:16:31;;;;;;;21.40;20.40;;;8.20;73.90;;;;;;5068425;28;20049;-79
2022/01/07 00:18:57;;;;;;;21.30;20.30;;;8.20;73.90;;;;;;5069440;28;20028;-79
2022/01/07 00:21:23;;;;;;;21.10;20.10;;;8.20;73.90;;;;;;5069939;28;20417;-79
2022/01/07 00:23:49;;;;;;;21.30;20.30;;;8.20;73.90;;;;;;5069814;28;20024;-79
2022/01/07 00:26:16;;;;;;;1999.90;999.90;;;8.20;73.90;;;;;;5070207;28;20036;-79
2022/01/07 00:28:42;;;;;;;1999.90;999.90;;;8.20;74.00;;;;;;5068994;28;20538;-79
2022/01/07 00:31:08;;;;;;;1999.90;999.90;;;8.20;73.90;;;;;;5068826;28;20493;-79
2022/01/07 00:33:35;;;;;;;1999.90;999.90;;;8.20;74.00;;;;;;5070583;28;20385;-79
2022/01/07 00:36:01;;;;;;;1999.90;999.90;;;8.30;74.10;;;;;;5070930;28;20528;-79
2022/01/07 00:38:30;;;;;;;1999.90;999.90;;;8.20;74.00;;;;;;5070371;28;20029;-79
2022/01/07 00:40:56;;;;;;;1999.90;999.90;;;8.30;74.10;;;;;;5068257;28;20025;-80
2022/01/07 00:43:22;;;;;;;1999.90;999.90;;;8.30;74.10;;;;;;5068918;28;20047;-79
2022/01/07 00:45:49;;;;;;;1999.90;999.90;;;8.30;74.20;;;;;;5068872;28;20059;-79
2022/01/07 00:48:15;;;;;;;25.23;24.03;;;8.30;74.10;;;;;;5053239;28;20043;-79
2022/01/07 00:50:41;;;;;;;25.40;24.10;;;8.30;74.20;;;;;;5070253;28;20037;-79
2022/01/07 00:53:07;;;;;;;24.40;23.07;;;8.30;74.20;;;;;;5070425;28;20055;-79
2022/01/07 00:55:35;;;;;;;24.30;23.20;;;8.30;74.20;;;;;;5067268;28;20033;-79
2022/01/07 00:58:01;;;;;;;22.47;21.47;;;8.30;74.20;;;;;;5070167;28;20051;-79
2022/01/07 01:00:27;;;;;;;21.47;20.47;;;8.30;74.20;;;;;;5068593;28;20036;-79
2022/01/07 01:02:55;;;;;;;21.10;20.10;;;8.40;74.30;;;;;;5069963;28;20052;-79
2022/01/07 01:05:21;;;;;;;20.75;19.77;;;8.30;74.20;;;;;;5052675;28;20412;-79
2022/01/07 01:07:47;;;;;;;19.63;18.73;;;8.30;74.20;;;;;;5070152;28;20032;-79
2022/01/07 01:10:14;;;;;;;21.03;20.03;;;8.40;74.30;;;;;;5069780;28;20512;-79
2022/01/07 01:12:41;;;;;;;22.50;21.30;;;8.30;74.30;;;;;;5068902;28;20532;-79
2022/01/07 01:15:10;;;;;;;20.33;19.43;;;8.40;74.30;;;;;;5063336;28;20055;-79
2022/01/07 01:17:36;;;;;;;20.27;19.37;;;8.40;74.40;;;;;;5085127;28;20078;-79
2022/01/07 01:20:04;;;;;;;20.10;19.20;;;8.40;74.40;;;;;;5069766;28;20040;-79
2022/01/07 01:22:31;;;;;;;19.73;18.83;;;8.40;74.40;;;;;;5069083;28;20488;-79
2022/01/07 01:24:57;;;;;;;19.70;18.80;;;8.40;74.40;;;;;;5068664;28;20024;-79
2022/01/07 01:27:23;;;;;;;20.47;19.37;;;8.40;74.40;;;;;;5068964;28;20020;-79
2022/01/07 01:29:49;;;;;;;19.90;19.00;;;8.40;74.40;;;;;;5071843;28;20029;-79
2022/01/07 01:32:16;;;;;;;20.43;19.53;;;8.40;74.50;;;;;;5069327;28;20044;-79
2022/01/07 01:34:43;;;;;;;20.90;19.90;;;8.40;74.50;;;;;;5050734;28;20020;-79
2022/01/07 01:37:09;;;;;;;20.02;19.13;;;8.40;74.60;;;;;;5052194;28;20037;-79
2022/01/07 01:39:35;;;;;;;19.63;18.73;;;8.50;74.70;;;;;;5068456;28;20055;-79
2022/01/07 01:42:01;;;;;;;19.80;18.75;;;8.50;74.70;;;;;;5070407;28;20032;-79
2022/01/07 01:44:27;;;;;;;20.27;19.33;;;8.50;74.70;;;;;;5069813;28;20029;-79
2022/01/07 01:46:53;;;;;;;19.27;18.37;;;8.50;74.80;;;;;;5069238;28;20051;-79
2022/01/07 01:49:19;;;;;;;19.00;18.10;;;8.50;74.80;;;;;;5051997;28;20410;-79
2022/01/07 01:51:45;;;;;;;19.58;18.67;;;8.50;74.80;;;;;;5069927;28;20025;-79
2022/01/07 01:54:11;;;;;;;19.08;18.13;;;8.50;74.90;;;;;;5071482;28;20037;-79
2022/01/07 01:56:37;;;;;;;20.15;19.25;;;8.50;74.90;;;;;;5089689;28;20024;-79
2022/01/07 01:59:04;;;;;;;21.23;20.23;;;8.50;74.90;;;;;;5105700;28;20028;-79
2022/01/07 02:01:30;;;;;;;21.03;20.03;;;8.50;75.00;;;;;;5070721;28;20044;-79
2022/01/07 02:03:56;;;;;;;20.02;19.13;;;8.60;75.10;;;;;;5055573;28;20744;-79
2022/01/07 02:06:22;;;;;;;20.45;19.55;;;8.50;75.10;;;;;;5071842;28;20024;-79
2022/01/07 02:08:48;;;;;;;19.83;18.93;;;8.50;75.20;;;;;;5107192;28;20047;-79
2022/01/07 02:11:14;;;;;;;18.80;17.90;;;8.50;75.20;;;;;;5105345;28;20045;-79
2022/01/07 02:13:40;;;;;;;18.80;17.90;;;8.50;75.30;;;;;;5071359;28;20028;-79
2022/01/07 02:16:07;;;;;;;18.70;17.83;;;8.40;75.40;;;;;;5072414;28;20067;-79
2022/01/07 02:18:33;;;;;;;19.10;18.20;;;8.50;75.50;;;;;;5071850;28;20039;-79
2022/01/07 02:20:59;;;;;;;19.00;18.10;;;8.40;75.50;;;;;;5073196;28;20033;-79
2022/01/07 02:23:25;;;;;;;19.63;18.23;;;8.40;75.60;;;;;;5071191;28;20036;-80
2022/01/07 02:25:52;;;;;;;19.13;18.23;;;8.40;75.60;;;;;;5071554;28;20039;-79
2022/01/07 02:28:18;;;;;;;19.33;18.43;;;8.40;75.70;;;;;;5071579;28;20028;-79
2022/01/07 02:30:44;;;;;;;18.85;17.95;;;8.40;75.80;;;;;;5054154;28;20048;-79
2022/01/07 02:33:10;;;;;;;19.27;18.37;;;8.40;75.80;;;;;;5072608;28;20035;-79
2022/01/07 02:35:36;;;;;;;17.90;17.00;;;8.30;75.90;;;;;;5073230;28;20025;-79
2022/01/07 02:38:02;;;;;;;18.90;18.00;;;8.30;75.90;;;;;;5072043;28;20039;-79
2022/01/07 02:40:28;;;;;;;18.43;17.63;;;8.30;76.00;;;;;;5054565;28;20386;-79
2022/01/07 02:42:54;;;;;;;17.63;16.83;;;8.30;76.00;;;;;;5072400;28;20485;-79
2022/01/07 02:45:20;;;;;;;17.77;16.97;;;8.30;76.10;;;;;;5070690;28;20028;-79
2022/01/07 02:47:54;;;;;;;18.50;17.60;;;8.40;76.20;;;;;;5107034;28;20028;-79
2022/01/07 02:50:35;;;;;;;18.07;17.27;;;8.30;76.20;;;;;;5071662;28;20040;-79
2022/01/07 02:53:03;;;;;;;17.45;16.65;;;8.40;76.30;;;;;;5069505;28;20021;-79
2022/01/07 02:55:29;;;;;;;17.70;16.90;;;8.40;76.30;;;;;;5070896;28;20032;-79
2022/01/07 02:57:55;;;;;;;17.80;17.00;;;8.30;76.20;;;;;;5070862;28;20042;-79
2022/01/07 03:00:22;;;;;;;18.27;17.45;;;8.30;76.30;;;;;;5071117;28;20029;-79
2022/01/07 03:02:49;;;;;;;17.20;16.40;;;8.40;76.40;;;;;;5085507;28;20024;-79
2022/01/07 03:05:15;;;;;;;17.83;17.02;;;8.40;76.50;;;;;;5064874;28;20029;-79
2022/01/07 03:07:42;;;;;;;17.73;16.92;;;8.40;76.50;;;;;;5065046;28;20336;-79
2022/01/07 03:10:09;;;;;;;17.17;16.38;;;8.40;76.50;;;;;;5062844;28;20056;-79
2022/01/07 03:12:36;;;;;;;17.42;16.63;;;8.40;76.60;;;;;;5084030;28;20041;-79
2022/01/07 03:15:07;;;;;;;17.25;16.45;;;8.40;76.60;;;;;;5100128;28;20028;-79
2022/01/07 03:17:33;;;;;;;18.02;16.65;;;8.40;76.60;;;;;;5080923;28;20048;-79
2022/01/07 03:19:59;;;;;;;17.67;16.88;;;8.40;76.70;;;;;;5078844;28;20044;-79
2022/01/07 03:22:25;;;;;;;17.95;17.15;;;8.40;76.80;;;;;;5089198;28;20037;-79
2022/01/07 03:24:51;;;;;;;17.23;16.43;;;8.40;76.80;;;;;;5094757;28;20036;-79
2022/01/07 03:27:17;;;;;;;17.50;16.70;;;8.30;76.80;;;;;;5086686;28;20029;-79
2022/01/07 03:29:43;;;;;;;17.40;16.60;;;8.40;77.00;;;;;;5080409;28;20033;-79
2022/01/07 03:32:10;;;;;;;17.70;16.90;;;8.30;76.90;;;;;;5091278;28;20052;-79
2022/01/07 03:34:36;;;;;;;18.07;16.80;;;8.30;77.00;;;;;;5056294;28;20032;-79
2022/01/07 03:37:02;;;;;;;17.60;16.80;;;8.30;77.00;;;;;;5064510;28;20040;-79
2022/01/07 03:39:28;;;;;;;18.33;17.42;;;8.30;77.10;;;;;;5070315;28;20059;-79
2022/01/07 03:41:54;;;;;;;18.17;17.27;;;8.30;77.20;;;;;;5073018;28;20025;-79
2022/01/07 03:44:20;;;;;;;18.40;17.13;;;8.30;77.20;;;;;;5071249;28;20389;-79
2022/01/07 03:46:46;;;;;;;16.80;16.00;;;8.30;77.20;;;;;;5070549;28;20033;-79
2022/01/07 03:49:12;;;;;;;16.70;15.90;;;8.30;77.20;;;;;;5070622;28;20033;-79
2022/01/07 03:51:39;;;;;;;17.63;16.83;;;8.30;77.40;;;;;;5070966;28;20044;-79
2022/01/07 03:54:05;;;;;;;17.10;16.30;;;8.30;77.20;;;;;;5071541;28;20237;-79
2022/01/07 03:56:33;;;;;;;17.70;16.90;;;8.30;77.20;;;;;;5071061;28;20032;-79
2022/01/07 03:59:00;;;;;;;17.90;17.10;;;8.40;77.30;;;;;;5069878;28;20035;-79
2022/01/07 04:01:26;;;;;;;17.02;16.23;;;8.40;77.30;;;;;;5070176;28;20056;-79
2022/01/07 04:03:52;;;;;;;17.33;16.52;;;8.40;77.40;;;;;;5069129;28;20040;-79
2022/01/07 04:06:20;;;;;;;17.17;16.38;;;8.40;77.30;;;;;;5070006;28;20039;-79
2022/01/07 04:08:48;;;;;;;17.08;16.27;;;8.40;77.40;;;;;;5070625;28;20033;-79
2022/01/07 04:11:14;;;;;;;17.77;16.97;;;8.40;77.40;;;;;;5067582;28;20387;-79
2022/01/07 04:13:40;;;;;;;18.10;17.20;;;8.40;77.50;;;;;;5053779;28;20048;-79
2022/01/07 04:16:06;;;;;;;17.90;17.10;;;8.40;77.50;;;;;;5068647;28;20063;-79
2022/01/07 04:18:32;;;;;;;16.42;15.63;;;8.40;77.60;;;;;;5069019;28;20421;-79
2022/01/07 04:20:59;;;;;;;17.45;16.65;;;8.40;77.60;;;;;;5071222;28;20033;-79
2022/01/07 04:23:25;;;;;;;16.73;15.93;;;8.40;77.60;;;;;;5069245;28;20036;-79
2022/01/07 04:25:51;;;;;;;16.30;15.50;;;8.40;77.70;;;;;;5069278;28;20039;-79
2022/01/07 04:28:17;;;;;;;17.57;16.67;;;8.40;77.70;;;;;;5070298;28;20035;-79
2022/01/07 04:30:43;;;;;;;17.42;16.63;;;8.40;77.70;;;;;;5069892;28;20045;-79
2022/01/07 04:33:13;;;;;;;16.85;16.05;;;8.50;77.90;;;;;;5070514;28;20108;-79
2022/01/07 04:35:39;;;;;;;16.70;15.93;;;8.50;78.60;;;;;;5083730;28;20047;-79
2022/01/07 04:38:05;;;;;;;17.38;16.58;;;8.50;77.90;;;;;;5066972;28;20052;-79
2022/01/07 04:40:32;;;;;;;17.20;16.40;;;8.50;77.90;;;;;;5068649;28;20048;-79
2022/01/07 04:43:01;;;;;;;17.05;16.25;;;8.50;77.90;;;;;;5069186;28;20469;-79
2022/01/07 04:45:27;;;;;;;17.50;16.65;;;8.50;77.90;;;;;;5052416;28;20044;-79
2022/01/07 04:47:53;;;;;;;18.05;17.15;;;8.50;78.00;;;;;;5104316;28;20032;-79
2022/01/07 04:50:20;;;;;;;16.47;15.67;;;8.50;78.00;;;;;;5084124;28;20496;-79
2022/01/07 04:52:46;;;;;;;17.23;16.27;;;8.50;78.10;;;;;;5101009;28;20028;-79
2022/01/07 04:55:17;;;;;;;17.33;16.52;;;8.50;78.10;;;;;;5085712;28;20032;-79
2022/01/07 04:57:43;;;;;;;16.98;16.17;;;8.50;78.10;;;;;;5069324;28;20021;-79
2022/01/07 05:00:10;;;;;;;17.17;16.37;;;8.50;78.20;;;;;;5069771;28;20028;-79
2022/01/07 05:02:37;;;;;;;16.83;16.02;;;8.50;78.20;;;;;;5085806;28;20043;-79
2022/01/07 05:05:03;;;;;;;16.30;15.60;;;8.50;78.20;;;;;;5085696;28;20393;-79
2022/01/07 05:07:29;;;;;;;16.60;15.80;;;8.50;78.30;;;;;;5102143;28;20033;-79
2022/01/07 05:09:55;;;;;;;16.42;15.68;;;8.50;78.30;;;;;;5069034;28;20392;-79
2022/01/07 05:12:21;;;;;;;16.50;15.70;;;8.50;78.30;;;;;;5068948;28;20044;-79
2022/01/07 05:14:47;;;;;;;16.13;15.43;;;8.60;78.40;;;;;;5071950;28;20033;-79
2022/01/07 05:17:13;;;;;;;16.65;15.85;;;8.60;78.40;;;;;;5068593;28;20468;-80
2022/01/07 05:19:40;;;;;;;17.25;16.25;;;8.50;78.30;;;;;;5091061;28;20036;-80
2022/01/07 05:22:06;;;;;;;16.65;15.85;;;8.60;78.40;;;;;;5072234;28;20036;-80
2022/01/07 05:24:32;;;;;;;16.65;15.85;;;8.60;78.40;;;;;;5068561;28;20039;-81
2022/01/07 05:26:58;;;;;;;16.45;15.73;;;8.60;78.50;;;;;;5104724;28;20394;-80
2022/01/07 05:29:25;;;;;;;16.73;15.93;;;8.60;78.50;;;;;;5104848;28;20033;-80
2022/01/07 05:31:51;;;;;;;16.50;15.70;;;8.60;78.60;;;;;;5103046;28;20045;-79
2022/01/07 05:34:17;;;;;;;16.52;15.73;;;8.60;78.60;;;;;;5064029;28;20094;-80
2022/01/07 05:36:44;;;;;;;17.35;16.50;;;8.60;78.60;;;;;;5055833;28;20032;-80
2022/01/07 05:39:10;;;;;;;16.20;15.50;;;8.60;78.60;;;;;;5074014;28;20024;-80
2022/01/07 05:41:37;;;;;;;17.45;16.35;;;8.60;78.60;;;;;;5088799;28;20043;-80
2022/01/07 05:44:03;;;;;;;17.13;16.33;;;8.70;78.70;;;;;;5073369;28;20035;-80
2022/01/07 05:46:29;;;;;;;17.60;16.70;;;8.70;78.70;;;;;;5072619;28;20037;-80
2022/01/07 05:48:56;;;;;;;17.40;16.60;;;8.70;78.80;;;;;;5072219;28;20025;-81
2022/01/07 05:51:22;;;;;;;17.20;16.40;;;8.70;78.80;;;;;;5071852;28;20044;-80
2022/01/07 05:53:48;;;;;;;17.13;16.33;;;8.70;78.80;;;;;;5075345;28;20036;-80
2022/01/07 05:56:14;;;;;;;17.35;16.55;;;8.70;78.80;;;;;;5073163;28;20051;-81
2022/01/07 05:58:40;;;;;;;17.13;16.33;;;8.70;78.80;;;;;;5073120;28;20021;-80
2022/01/07 06:01:09;;;;;;;16.45;15.70;;;8.70;78.80;;;;;;5072465;28;20470;-80
2022/01/07 06:03:35;;;;;;;17.05;16.25;;;8.70;78.90;;;;;;5072119;28;20029;-80
2022/01/07 06:06:01;;;;;;;17.45;16.65;;;8.70;78.90;;;;;;5107579;28;20123;-81
2022/01/07 06:08:27;;;;;;;17.20;16.40;;;8.70;79.00;;;;;;5068865;28;20020;-80
2022/01/07 06:10:54;;;;;;;17.13;16.23;;;8.70;79.00;;;;;;5085715;28;20040;-81
2022/01/07 06:13:20;;;;;;;17.27;16.48;;;8.70;79.00;;;;;;5081015;28;20032;-80
2022/01/07 06:15:46;;;;;;;16.58;15.77;;;8.70;79.10;;;;;;5086635;28;20056;-81
2022/01/07 06:18:12;;;;;;;17.30;16.50;;;8.70;79.20;;;;;;5077715;28;20024;-81
2022/01/07 06:20:38;;;;;;;17.35;16.55;;;8.60;79.10;;;;;;5106198;28;20484;-81
2022/01/07 06:23:04;;;;;;;17.10;16.30;;;8.60;79.20;;;;;;5105257;28;20044;-80
2022/01/07 06:25:30;;;;;;;17.53;16.73;;;8.60;79.30;;;;;;5086176;28;20051;-82
2022/01/07 06:27:57;;;;;;;18.47;17.00;;;8.50;79.40;;;;;;5062175;28;20028;-80
2022/01/07 06:30:23;;;;;;;17.13;16.33;;;8.50;79.40;;;;;;5072089;28;20028;-79
2022/01/07 06:32:49;;;;;;;17.13;16.33;;;8.40;79.40;;;;;;5090079;28;20469;-79
2022/01/07 06:35:16;;;;;;;17.07;16.27;;;8.40;79.50;;;;;;5070783;28;20036;-81
2022/01/07 06:37:42;;;;;;;17.63;16.83;;;8.40;79.60;;;;;;5038368;28;20044;-80
2022/01/07 06:40:09;;;;;;;17.13;16.33;;;8.40;79.70;;;;;;5070416;28;20384;-81
2022/01/07 06:42:35;;;;;;;17.27;16.48;;;8.30;79.70;;;;;;5053184;28;20037;-81
2022/01/07 06:45:01;;;;;;;16.83;16.02;;;8.40;79.80;;;;;;5106852;28;20024;-81
2022/01/07 06:47:27;;;;;;;16.60;15.83;;;8.30;79.70;;;;;;5085684;28;20051;-81
2022/01/07 06:49:53;;;;;;;16.80;16.00;;;8.30;79.80;;;;;;5103158;28;20035;-81
2022/01/07 06:52:19;;;;;;;17.48;16.63;;;8.30;79.80;;;;;;5104483;28;20040;-81
2022/01/07 06:54:46;;;;;;;17.73;16.80;;;8.20;79.80;;;;;;5072219;28;20036;-81
2022/01/07 06:57:12;;;;;;;17.40;16.60;;;8.20;79.90;;;;;;5073107;28;20024;-81
2022/01/07 06:59:38;;;;;;;17.23;16.43;;;8.20;79.90;;;;;;5071593;28;20040;-81
2022/01/07 07:02:04;;;;;;;17.43;16.63;;;8.20;80.00;;;;;;5071375;28;20036;-81
2022/01/07 07:04:30;;;;;;;16.50;15.70;;;8.10;79.90;;;;;;5038849;28;20047;-81
2022/01/07 07:06:56;;;;;;;18.00;17.20;;;8.10;80.00;;;;;;5071886;28;20055;-81
2022/01/07 07:09:22;;;;;;;17.53;16.73;;;8.10;80.00;;;;;;5054246;28;20033;-81
2022/01/07 07:11:48;;;;;;;16.53;15.73;;;8.10;80.00;;;;;;5083955;28;20052;-81
2022/01/07 07:14:15;;;;;;;16.70;15.90;;;8.10;80.00;;;;;;5087220;28;20033;-81
2022/01/07 07:16:43;;;;;;;16.73;15.93;;;8.10;80.10;;;;;;5068536;28;20059;-81
2022/01/07 07:19:09;;;;;;;17.10;16.30;;;8.00;80.10;;;;;;5102057;28;20028;-81
2022/01/07 07:21:35;;;;;;;17.23;16.43;;;8.00;80.10;;;;;;5054068;28;20048;-81
2022/01/07 07:24:02;;;;;;;16.07;15.37;;;8.00;80.10;;;;;;5073411;28;20039;-81
2022/01/07 07:26:28;;;;;;;16.97;16.10;;;8.00;81.00;;;;;;5051875;28;20036;-81
2022/01/07 07:28:54;;;;;;;17.27;16.33;;;8.00;80.20;;;;;;5035546;28;20040;-81
2022/01/07 07:31:21;;;;;;;16.87;16.07;;;8.00;80.20;;;;;;5070640;28;20057;-80
2022/01/07 07:36:27;;;;;;;17.23;16.43;;;7.90;80.20;;;;;;5057262;28;20037;-80
2022/01/07 07:38:54;;;;;;;16.60;15.80;;;7.90;80.20;;;;;;5071939;28;20511;-81
2022/01/07 07:41:20;;;;;;;17.30;16.50;;;7.90;80.30;;;;;;5069604;28;20063;-80
2022/01/07 07:43:50;;;;;;;18.33;17.13;;;7.90;80.30;;;;;;5069653;28;20037;-80
2022/01/07 07:46:17;;;;;;;16.77;15.97;;;7.90;80.30;;;;;;5069455;28;20478;-80
2022/01/07 07:48:45;;;;;;;18.43;17.37;;;7.90;80.40;;;;;;5053685;28;20028;-81
2022/01/07 07:51:11;;;;;;;16.50;15.70;;;7.80;80.30;;;;;;5054791;28;20488;-80
2022/01/07 07:53:37;;;;;;;16.10;15.40;;;7.80;80.40;;;;;;5071631;28;20051;-80
2022/01/07 07:56:03;;;;;;;15.83;15.13;;;7.80;80.40;;;;;;5070620;28;20024;-80
2022/01/07 07:58:29;;;;;;;17.60;16.40;;;7.80;80.40;;;;;;5053235;28;20047;-80
2022/01/07 08:00:56;;;;;;;16.83;16.03;;;7.80;80.40;;;;;;5052584;28;20036;-80
2022/01/07 08:03:22;;;;;;;17.42;16.52;;;7.80;80.50;;;;;;5053821;28;20030;-81
2022/01/07 08:05:48;;;;;;;16.00;15.30;;;7.80;80.50;;;;;;5070966;28;20039;-80
2022/01/07 08:08:14;;;;;;;16.37;15.63;;;7.80;80.50;;;;;;5069395;28;20043;-80
2022/01/07 08:10:47;;;;;;;16.97;15.97;;;7.80;80.50;;;;;;5052514;28;20036;-81
2022/01/07 08:15:58;;;;;;;16.60;15.80;;;7.80;80.50;;;;;;5074267;28;20053;-80
2022/01/07 08:18:34;;;;;;;16.80;16.00;;;7.80;80.50;;;;;;5070661;28;20028;-80
2022/01/07 08:21:07;;;;;;;16.13;15.43;;;7.80;80.40;;;;;;5088026;28;20448;-80
2022/01/07 08:23:33;;;;;;;16.67;15.88;;;7.80;80.40;;;;;;5084794;28;20039;-80
2022/01/07 08:26:00;;;;;;;16.50;15.70;;;7.90;80.40;;;;;;5069998;28;20044;-80
2022/01/07 08:28:29;;;;;;;16.77;15.90;;;7.90;80.40;;;;;;5069378;28;20035;-80
2022/01/07 08:31:26;;;;;;;16.33;15.57;;;7.90;80.30;;;;;;5068830;28;20056;-80
2022/01/07 08:36:30;;;;;;;16.43;15.63;;;8.00;80.20;;;;;;5070806;28;20036;-80
2022/01/07 08:38:56;;;;;;;16.33;15.60;;;8.10;80.20;;;;;;5099978;28;20024;-80
2022/01/07 08:41:25;;;;;;;16.98;16.17;;;8.20;80.20;;;;;;5091947;28;20493;-80
2022/01/07 08:43:51;;;;;;;16.58;15.77;;;8.20;80.20;;;;;;5078146;28;20020;-80
2022/01/07 08:46:17;;;;;;;16.63;15.83;;;8.20;80.10;;;;;;5100521;28;20036;-80
2022/01/07 08:48:44;;;;;;;16.93;15.40;;;8.20;80.20;;;;;;5036590;28;20520;-80
2022/01/07 08:51:10;;;;;;;17.50;16.60;;;8.20;80.10;;;;;;5053708;28;20040;-80
2022/01/07 08:53:36;;;;;;;16.20;15.50;;;8.20;80.10;;;;;;5103068;28;20469;-80
2022/01/07 08:56:03;;;;;;;16.70;15.90;;;8.20;80.10;;;;;;5095389;28;20025;-80
2022/01/07 08:58:29;;;;;;;16.90;16.10;;;8.30;80.20;;;;;;5075428;28;20040;-80
2022/01/07 09:00:58;;;;;;;16.40;15.65;;;8.30;80.20;;;;;;5068419;28;20032;-80
2022/01/07 09:03:24;;;;;;;16.67;15.88;;;8.30;80.20;;;;;;5071793;28;20504;-83
2022/01/07 09:05:50;;;;;;;16.15;15.45;;;8.40;80.30;;;;;;5108807;28;20028;-83
2022/01/07 09:08:16;;;;;;;16.20;15.50;;;8.50;80.30;;;;;;5106282;28;20440;-82
2022/01/07 09:10:43;;;;;;;16.77;15.98;;;8.60;80.20;;;;;;5073556;28;20025;-81
2022/01/07 09:13:09;;;;;;;17.95;17.05;;;8.60;80.00;;;;;;5056352;28;20512;-82
2022/01/07 09:15:35;;;;;;;17.87;16.97;;;8.70;80.00;;;;;;5057341;28;20037;-82
2022/01/07 09:18:09;;;;;;;16.93;16.13;;;8.60;79.90;;;;;;5091392;28;20032;-81
2022/01/07 09:20:45;;;;;;;17.10;16.30;;;8.60;80.00;;;;;;5072894;28;20381;-81
2022/01/07 09:23:11;;;;;;;17.83;17.02;;;8.60;80.10;;;;;;5054263;28;20033;-80
2022/01/07 09:25:37;;;;;;;17.87;17.07;;;8.60;80.10;;;;;;5068140;28;20025;-81
2022/01/07 09:28:05;;;;;;;17.55;16.75;;;8.60;80.20;;;;;;5073196;28;20040;-80
2022/01/07 09:30:31;;;;;;;20.02;18.27;;;8.60;80.20;;;;;;5071707;28;20075;-79
2022/01/07 09:32:57;;;;;;;18.13;17.33;;;8.70;80.20;;;;;;5108055;28;20040;-81
2022/01/07 09:35:23;;;;;;;18.87;17.77;;;8.70;80.20;;;;;;5105949;28;20469;-80
2022/01/07 09:37:50;;;;;;;17.90;17.10;;;8.70;80.20;;;;;;5071771;28;20044;-80
2022/01/07 09:40:17;;;;;;;18.30;17.45;;;8.70;80.20;;;;;;5073364;28;20025;-80
2022/01/07 09:43:00;;;;;;;18.10;17.30;;;8.80;80.20;;;;;;5054474;28;20036;-80
2022/01/07 09:45:26;;;;;;;18.63;17.73;;;8.80;80.20;;;;;;5055429;28;20024;-81
2022/01/07 09:47:53;;;;;;;17.75;16.95;;;8.80;80.10;;;;;;5091019;28;20389;-81
2022/01/07 09:50:19;;;;;;;18.10;17.30;;;8.90;80.10;;;;;;5088559;28;20033;-80
2022/01/07 09:52:46;;;;;;;18.92;18.02;;;8.90;80.10;;;;;;5072742;28;20036;-80
2022/01/07 09:55:12;;;;;;;18.00;17.20;;;8.90;80.00;;;;;;5073303;28;20469;-80
2022/01/07 09:57:38;;;;;;;19.48;18.20;;;9.00;80.10;;;;;;5073263;28;20028;-80
2022/01/07 10:00:06;;;;;;;18.52;17.67;;;9.00;80.00;;;;;;5074637;28;20028;-80
2022/01/07 10:02:32;;;;;;;18.80;17.90;;;9.10;80.00;;;;;;5105643;28;20420;-81
2022/01/07 10:04:58;;;;;;;19.27;18.38;;;9.20;80.00;;;;;;5086280;28;20031;-81
2022/01/07 10:07:25;;;;;;;19.85;18.70;;;9.30;79.90;;;;;;5056819;28;20496;-81
2022/01/07 10:10:05;;;;;;;20.45;19.35;;;9.50;79.60;;;;;;5055239;28;20481;-80
2022/01/07 10:12:53;;;;;;;19.08;18.17;;;9.70;79.10;;;;;;5071548;28;20492;-80
2022/01/07 10:15:21;;;;;;;20.35;19.45;;;9.80;78.80;;;;;;5096046;28;20037;-81
2022/01/07 10:18:02;;;;;;;21.27;20.27;;;9.80;78.70;;;;;;5056586;28;20052;-82
2022/01/07 10:20:29;;;;;;;;;;;9.90;78.80;;;;;;5072800;28;20029;-82
2022/01/07 10:23:00;;;;;;;18.95;18.05;;;9.90;78.70;;;;;;5072849;28;19912;-82
2022/01/07 10:25:27;;;;;;;;;;;10.00;78.50;;;;;;5071907;28;20031;-82
2022/01/07 10:28:00;;;;;;;20.70;19.75;;;10.00;78.30;;;;;;5071133;28;20261;-84
2022/01/07 10:30:26;;;;;;;21.30;20.30;;;10.00;78.30;;;;;;5054579;28;20040;-82
2022/01/07 10:32:56;;;;;;;1999.90;999.90;;;10.10;78.40;;;;;;5089842;28;20049;-82
2022/01/07 10:35:23;;;;;;;1999.90;999.90;;;10.20;78.50;;;;;;5104554;28;20040;-82
2022/01/07 10:38:00;;;;;;;1999.90;999.90;;;10.40;78.30;;;;;;5070912;28;20032;-82
2022/01/07 10:40:35;;;;;;;22.83;21.77;;;10.60;77.60;;;;;;5069792;28;20024;-87
2022/01/07 10:43:10;;;;;;;21.35;20.35;;;10.70;77.10;;;;;;5055428;28;20040;-84
2022/01/07 10:45:37;;;;;;;21.38;20.38;;;10.70;77.20;;;;;;5056127;28;20037;-80
2022/01/07 10:48:04;;;;;;;21.33;20.33;;;10.60;77.40;;;;;;5087604;28;20043;-82
2022/01/07 10:50:30;;;;;;;22.02;21.02;;;10.60;77.70;;;;;;5068305;28;20048;-84
2022/01/07 10:53:20;;;;;;;1999.90;999.90;;;10.50;77.90;;;;;;5097681;28;20040;-84
2022/01/07 10:56:03;;;;;;;1505.70;755.40;;;10.70;78.00;;;;;;5072033;28;20028;-81
2022/01/07 10:58:29;;;;;;;1999.90;999.90;;;10.80;77.60;;;;;;5070859;28;20047;-85
2022/01/07 11:00:56;;;;;;;1999.90;999.90;;;11.00;77.10;;;;;;5071647;28;20028;-81
2022/01/07 11:03:22;;;;;;;1999.90;999.90;;;11.20;76.60;;;;;;5070601;28;20029;-81
2022/01/07 11:05:48;;;;;;;1999.90;999.90;;;11.40;76.10;;;;;;5107143;28;20050;-81
2022/01/07 11:08:15;;;;;;;1999.90;999.90;;;11.50;75.80;;;;;;5071643;28;20040;-82
2022/01/07 11:10:42;;;;;;;1999.90;999.90;;;11.40;75.80;;;;;;5070559;28;20028;-82
2022/01/07 11:13:11;;;;;;;1999.90;999.90;;;11.30;76.10;;;;;;5053952;28;20429;-82
2022/01/07 11:15:37;;;;;;;1999.90;999.90;;;11.20;76.50;;;;;;5055601;28;20033;-82
2022/01/07 11:18:04;;;;;;;1999.90;999.90;;;11.10;76.80;;;;;;5069072;28;20037;-82
2022/01/07 11:20:30;;;;;;;1999.90;999.90;;;11.10;77.20;;;;;;5070214;28;20370;-82
2022/01/07 11:22:56;;;;;;;1999.90;999.90;;;11.10;77.30;;;;;;5068965;28;20028;-82
2022/01/07 11:25:32;;;;;;;1999.90;999.90;;;11.30;77.10;;;;;;5037978;28;20048;-82
2022/01/07 11:28:00;;;;;;;1999.90;999.90;;;11.40;76.70;;;;;;5054131;28;20394;-82
2022/01/07 11:30:32;;;;;;;1999.90;999.90;;;11.50;76.30;;;;;;5053442;28;20031;-82
2022/01/07 11:32:59;;;;;;;1999.90;999.90;;;11.60;76.00;;;;;;5088179;28;20036;-81
2022/01/07 11:35:25;;;;;;;1999.90;999.90;;;11.60;75.80;;;;;;5086684;28;20028;-81
2022/01/07 11:37:53;;;;;;;1999.90;999.90;;;11.50;76.10;;;;;;5071020;28;20028;-83
2022/01/07 11:40:31;;;;;;;1999.90;999.90;;;11.50;76.40;;;;;;5053688;28;20032;-81
2022/01/07 11:43:18;;;;;;;1999.90;999.90;;;11.50;76.60;;;;;;5071437;28;20051;-82
2022/01/07 11:45:45;;;;;;;1999.90;999.90;;;11.70;76.40;;;;;;5044996;28;20024;-82
2022/01/07 11:48:15;;;;;;;1999.90;999.90;;;11.80;76.00;;;;;;5054445;28;20481;-82
2022/01/07 11:50:48;;;;;;;1999.90;999.90;;;11.90;75.70;;;;;;5072094;28;20043;-82
2022/01/07 11:53:14;;;;;;;1999.90;999.90;;;12.00;75.40;;;;;;5071032;28;20048;-82
2022/01/07 11:55:41;;;;;;;1999.90;999.90;;;12.20;75.20;;;;;;5036722;28;20032;-82
2022/01/07 11:58:08;;;;;;;1999.90;999.90;;;12.40;75.00;;;;;;5068236;28;20016;-82
2022/01/07 12:00:59;;;;;;;1999.90;999.90;;;12.50;74.50;;;;;;5068368;28;20107;-82
2022/01/07 12:03:36;;;;;;;1999.90;999.90;;;12.60;74.30;;;;;;5069279;28;20389;-82
2022/01/07 12:06:29;;;;;;;1999.90;999.90;;;12.70;74.10;;;;;;5088025;28;20041;-82
2022/01/07 12:09:05;;;;;;;1999.90;999.90;;;12.70;74.10;;;;;;5068498;28;20048;-82
2022/01/07 12:11:38;;;;;;;1999.90;999.90;;;12.70;74.00;;;;;;5070546;28;20389;-81
2022/01/07 12:14:15;;;;;;;1999.90;999.90;;;12.70;74.10;;;;;;5069552;28;20033;-82
2022/01/07 12:16:49;;;;;;;1999.90;999.90;;;12.70;74.10;;;;;;5052068;28;20048;-82
2022/01/07 12:19:18;;;;;;;1999.90;999.90;;;12.70;74.10;;;;;;5038080;28;20516;-82
2022/01/07 12:21:45;;;;;;;1999.90;999.90;;;12.70;74.10;;;;;;5070600;28;20358;-82
2022/01/07 12:24:13;;;;;;;1999.90;999.90;;;12.70;74.10;;;;;;5054188;28;20035;-82
2022/01/07 12:26:39;;;;;;;1999.90;999.90;;;12.80;74.10;;;;;;5071238;28;20492;-82
2022/01/07 12:29:05;;;;;;;1999.90;999.90;;;12.80;74.00;;;;;;5052752;28;20028;-82
2022/01/07 12:31:31;;;;;;;1999.90;999.90;;;12.90;73.90;;;;;;5068286;28;20032;-82
2022/01/07 12:33:59;;;;;;;1999.90;999.90;;;13.00;73.70;;;;;;5069006;28;20040;-82
2022/01/07 12:36:30;;;;;;;1999.90;999.90;;;13.10;73.30;;;;;;5069051;28;20033;-82
2022/01/07 12:39:00;;;;;;;1999.90;999.90;;;13.20;73.20;;;;;;5070049;28;20028;-82
2022/01/07 12:41:26;;;;;;;1999.90;999.90;;;13.30;73.10;;;;;;5050916;28;20036;-82